createdAt,value
2023-01-17T00:05:09.004Z,3.07
2023-01-17T00:10:15.235Z,3.08
2023-01-17T00:15:19.973Z,3.06
2023-01-17T00:20:43.043Z,3.05
2023-01-17T00:26:03.342Z,3.07
2023-01-17T00:31:07.113Z,3.06
2023-01-17T00:36:09.727Z,3.06
2023-01-17T00:41:14.498Z,3.07
2023-01-17T00:46:36.089Z,3.07
2023-01-17T00:51:57.202Z,3.08
2023-01-17T00:57:19.059Z,3.07
2023-01-17T01:02:40.215Z,3.07
2023-01-17T01:08:00.587Z,3.08
2023-01-17T01:13:21.250Z,3.09
2023-01-17T01:18:41.912Z,3.08
2023-01-17T01:24:02.396Z,3.06
2023-01-17T01:29:23.211Z,3.06
2023-01-17T01:34:25.230Z,3.07
2023-01-17T01:39:28.089Z,3.07
2023-01-17T01:44:48.629Z,3.07
2023-01-17T01:49:51.400Z,3.05
2023-01-17T01:54:58.700Z,3.04
2023-01-17T02:05:42.719Z,3.03
2023-01-17T02:10:44.852Z,3.02
2023-01-17T02:15:58.773Z,3.02
2023-01-17T02:21:34.633Z,3.01
2023-01-17T02:26:59.051Z,2.93
2023-01-17T02:32:25.817Z,2.97
2023-01-17T02:37:53.157Z,2.95
2023-01-17T02:43:02.934Z,2.96
2023-01-17T02:48:08.403Z,2.94
2023-01-17T02:53:37.703Z,2.92
2023-01-17T02:58:47.343Z,2.90
2023-01-17T03:03:56.301Z,2.90
2023-01-17T03:08:58.516Z,2.88
2023-01-17T03:14:00.527Z,2.87
2023-01-17T03:19:02.949Z,2.88
2023-01-17T03:24:05.180Z,2.85
2023-01-17T03:29:07.185Z,2.82
2023-01-17T03:34:09.578Z,2.84
2023-01-17T03:39:11.965Z,2.84
2023-01-17T03:44:14.030Z,2.81
2023-01-17T03:49:16.984Z,2.79
2023-01-17T03:54:19.711Z,2.76
2023-01-17T03:59:21.745Z,2.76
2023-01-17T04:04:24.267Z,2.74
2023-01-17T04:09:26.399Z,2.75
2023-01-17T04:14:28.945Z,2.73
2023-01-17T04:19:32.942Z,2.69
2023-01-17T04:24:35.268Z,2.70
2023-01-17T04:29:37.285Z,2.69
2023-01-17T04:34:39.375Z,2.68
2023-01-17T04:39:41.438Z,2.66
2023-01-17T04:44:43.453Z,2.65
2023-01-17T04:49:45.494Z,2.64
2023-01-17T04:54:50.301Z,2.65
2023-01-17T04:59:53.934Z,2.63
2023-01-17T05:04:55.971Z,2.60
2023-01-17T05:10:00.066Z,2.60
2023-01-17T05:15:02.286Z,2.56
2023-01-17T05:20:04.672Z,2.54
2023-01-17T05:25:07.218Z,2.51
2023-01-17T05:30:10.123Z,2.46
2023-01-17T05:35:11.983Z,2.44
2023-01-17T05:40:14.079Z,2.41
2023-01-17T05:45:17.436Z,2.38
2023-01-17T05:50:26.264Z,2.30
2023-01-17T05:55:29.792Z,2.27
2023-01-17T06:00:32.681Z,2.26
2023-01-17T06:05:34.697Z,2.22
2023-01-17T06:10:36.749Z,2.19
2023-01-17T06:15:39.877Z,2.13
2023-01-17T06:20:41.973Z,2.11
2023-01-17T06:25:46.113Z,2.07
2023-01-17T06:30:48.605Z,2.01
2023-01-17T06:35:52.085Z,2.01
2023-01-17T06:40:55.293Z,1.95
2023-01-17T06:45:57.274Z,1.90
2023-01-17T06:50:59.365Z,1.87
2023-01-17T06:56:01.469Z,1.89
2023-01-17T07:01:11.392Z,1.86
2023-01-17T07:06:13.635Z,1.83
2023-01-17T07:11:15.857Z,1.83
2023-01-17T07:16:17.976Z,1.82
2023-01-17T07:21:20.293Z,1.85
2023-01-17T07:26:22.234Z,1.80
2023-01-17T07:31:24.249Z,1.81
2023-01-17T07:36:26.291Z,1.81
2023-01-17T07:41:28.413Z,1.80
2023-01-17T07:46:30.462Z,1.83
2023-01-17T07:51:32.481Z,1.80
2023-01-17T07:56:35.228Z,1.81
2023-01-17T08:01:37.413Z,1.84
2023-01-17T08:06:43.677Z,1.87
2023-01-17T08:11:45.696Z,1.86
2023-01-17T08:16:47.679Z,1.88
2023-01-17T08:21:49.734Z,1.89
2023-01-17T08:26:51.838Z,1.91
2023-01-17T08:31:54.478Z,1.91
2023-01-17T08:36:56.577Z,1.95
2023-01-17T08:41:58.544Z,1.97
2023-01-17T08:47:01.666Z,1.98
2023-01-17T08:52:03.803Z,2.01
2023-01-17T08:57:05.933Z,2.09
2023-01-17T09:02:15.256Z,2.16
2023-01-17T09:07:19.225Z,2.16
2023-01-17T09:12:22.628Z,2.30
2023-01-17T09:17:24.707Z,2.32
2023-01-17T09:22:27.424Z,2.44
2023-01-17T09:27:29.520Z,2.44
2023-01-17T09:32:31.592Z,2.48
2023-01-17T09:37:33.703Z,2.57
2023-01-17T09:42:39.968Z,2.60
2023-01-17T09:47:45.438Z,2.64
2023-01-17T09:52:47.794Z,2.67
2023-01-17T09:58:12.380Z,2.76
2023-01-17T10:03:52.911Z,2.79
2023-01-17T10:09:20.779Z,2.83
2023-01-17T10:14:29.305Z,2.89
2023-01-17T10:20:18.415Z,2.94
2023-01-17T10:25:33.549Z,3.02
2023-01-17T10:30:42.920Z,3.06
2023-01-17T10:35:57.290Z,3.13
2023-01-17T10:41:15.070Z,3.23
2023-01-17T10:46:28.885Z,3.35
2023-01-17T10:51:43.401Z,3.40
2023-01-17T10:56:45.474Z,3.45
2023-01-17T11:01:49.196Z,3.51
2023-01-17T11:07:15.047Z,3.58
2023-01-17T11:12:33.584Z,3.67
2023-01-17T11:17:50.381Z,3.65
2023-01-17T11:23:19.277Z,3.73
2023-01-17T11:28:33.197Z,3.80
2023-01-17T11:33:48.627Z,4.01
2023-01-17T11:39:07.380Z,4.18
2023-01-17T11:44:30.728Z,4.38
2023-01-17T11:49:32.817Z,4.59
2023-01-17T11:54:40.792Z,4.79
2023-01-17T11:59:44.083Z,5.01
2023-01-17T12:04:55.784Z,5.23
2023-01-17T12:10:05.554Z,5.51
2023-01-17T12:15:22.511Z,5.64
2023-01-17T12:21:04.401Z,5.91
2023-01-17T12:26:57.463Z,6.09
2023-01-17T12:32:17.017Z,6.33
2023-01-17T12:37:41.622Z,6.37
2023-01-17T12:42:51.827Z,6.50
2023-01-17T12:48:01.684Z,6.62
2023-01-17T12:53:17.423Z,6.76
2023-01-17T12:58:25.946Z,6.84
2023-01-17T13:03:56.073Z,6.99
2023-01-17T13:09:02.968Z,7.17
2023-01-17T13:14:09.281Z,7.18
2023-01-17T13:19:20.481Z,7.28
2023-01-17T13:24:45.005Z,7.33
2023-01-17T13:30:15.748Z,7.40
2023-01-17T13:36:15.178Z,7.55
2023-01-17T13:41:45.258Z,7.54
2023-01-17T13:47:19.373Z,7.53
2023-01-17T13:52:21.359Z,7.49
2023-01-17T13:57:43.904Z,7.42
2023-01-17T14:02:46.807Z,7.39
2023-01-17T14:08:02.393Z,7.39
2023-01-17T14:13:25.119Z,7.34
2023-01-17T14:18:46.175Z,7.23
2023-01-17T14:23:48.836Z,7.13
2023-01-17T14:28:52.323Z,6.95
2023-01-17T14:33:54.642Z,6.82
2023-01-17T14:38:56.890Z,6.71
2023-01-17T14:44:01.443Z,6.59
2023-01-17T14:49:07.178Z,6.51
2023-01-17T14:54:21.447Z,6.39
2023-01-17T14:59:23.537Z,6.28
2023-01-17T15:04:28.165Z,6.17
2023-01-17T15:09:35.562Z,6.02
2023-01-17T15:14:42.937Z,5.83
2023-01-17T15:19:48.415Z,5.73
2023-01-17T15:24:51.105Z,5.63
2023-01-17T15:29:54.459Z,5.48
2023-01-17T15:34:57.411Z,5.35
2023-01-17T15:40:21.035Z,5.25
2023-01-17T15:45:31.103Z,5.16
2023-01-17T15:50:39.970Z,5.08
2023-01-17T15:55:42.040Z,5.02
2023-01-17T16:00:45.417Z,4.99
2023-01-17T16:05:48.619Z,4.90
2023-01-17T16:10:59.525Z,4.85
2023-01-17T16:16:24.318Z,4.81
2023-01-17T16:21:31.160Z,4.76
2023-01-17T16:26:33.384Z,4.66
2023-01-17T16:31:35.667Z,4.63
2023-01-17T16:36:37.791Z,4.58
2023-01-17T16:41:39.914Z,4.53
2023-01-17T16:46:42.125Z,4.48
2023-01-17T16:51:47.393Z,4.44
2023-01-17T16:56:49.663Z,4.37
2023-01-17T17:01:53.393Z,4.31
2023-01-17T17:06:55.467Z,4.28
2023-01-17T17:11:57.459Z,4.23
2023-01-17T17:17:02.531Z,4.15
2023-01-17T17:22:07.056Z,4.09
2023-01-17T17:27:09.417Z,4.06
2023-01-17T17:32:12.322Z,4.00
2023-01-17T17:37:16.452Z,3.95
2023-01-17T17:42:20.471Z,3.89
2023-01-17T17:47:24.617Z,3.82
2023-01-17T17:52:31.371Z,3.77
2023-01-17T17:57:33.521Z,3.72
2023-01-17T18:02:35.757Z,3.62
2023-01-17T18:07:38.564Z,3.57
2023-01-17T18:12:41.419Z,3.48
2023-01-17T18:17:43.956Z,3.40
2023-01-17T18:22:46.915Z,3.29
2023-01-17T18:27:49.758Z,3.21
2023-01-17T18:32:52.248Z,3.13
2023-01-17T18:37:55.009Z,3.03
2023-01-17T18:42:57.863Z,2.94
2023-01-17T18:48:00.696Z,2.84
2023-01-17T18:53:03.410Z,2.74
2023-01-17T18:58:06.166Z,2.70
2023-01-17T19:03:08.919Z,2.61
2023-01-17T19:08:11.713Z,2.52
2023-01-17T19:13:16.232Z,2.44
2023-01-17T19:18:19.456Z,2.35
2023-01-17T19:23:23.738Z,2.28
2023-01-17T19:28:27.347Z,2.20
2023-01-17T19:33:29.909Z,2.10
2023-01-17T19:38:35.447Z,2.03
2023-01-17T19:43:39.017Z,1.95
2023-01-17T19:48:46.443Z,1.91
2023-01-17T19:53:49.414Z,1.83
2023-01-17T19:58:52.676Z,1.77
2023-01-17T20:03:57.932Z,1.69
2023-01-17T20:09:01.390Z,1.62
2023-01-17T20:14:06.011Z,1.59
2023-01-17T20:19:08.705Z,1.51
2023-01-17T20:24:12.910Z,1.46
2023-01-17T20:29:19.701Z,1.41
2023-01-17T20:34:26.561Z,1.33
2023-01-17T20:39:33.262Z,1.24
2023-01-17T20:44:36.259Z,1.18
2023-01-17T20:49:38.711Z,1.13
2023-01-17T20:54:43.667Z,1.06
2023-01-17T20:59:46.964Z,0.96
2023-01-17T21:04:50.349Z,0.87
2023-01-17T21:09:53.404Z,0.84
2023-01-17T21:14:55.889Z,0.77
2023-01-17T21:19:59.479Z,0.69
2023-01-17T21:25:01.550Z,0.62
2023-01-17T21:30:03.906Z,0.53
2023-01-17T21:35:07.893Z,0.50
2023-01-17T21:40:10.847Z,0.40
2023-01-17T21:45:12.894Z,0.34
2023-01-17T21:50:28.452Z,0.30
2023-01-17T21:55:53.322Z,0.22
2023-01-17T22:01:07.933Z,0.16
2023-01-17T22:06:10.663Z,0.09
2023-01-17T22:11:15.487Z,0.01
2023-01-17T22:16:20.759Z,-0.03
2023-01-17T22:21:25.048Z,-0.09
2023-01-17T22:26:29.913Z,-0.16
2023-01-17T22:31:31.999Z,-0.23
2023-01-17T22:36:34.394Z,-0.29
2023-01-17T22:41:38.439Z,-0.36
2023-01-17T22:46:41.622Z,-0.41
2023-01-17T22:51:43.613Z,-0.50
2023-01-17T22:56:45.642Z,-0.54
2023-01-17T23:01:47.623Z,-0.60
2023-01-17T23:06:49.607Z,-0.66
2023-01-17T23:11:54.331Z,-0.70
2023-01-17T23:17:17.084Z,-0.76
2023-01-17T23:22:22.139Z,-0.88
2023-01-17T23:27:44.538Z,-0.86
2023-01-17T23:32:49.813Z,-0.92
2023-01-17T23:38:10.601Z,-0.96
2023-01-17T23:43:24.728Z,-1.01
2023-01-17T23:48:27.165Z,-1.06
2023-01-17T23:53:29.258Z,-1.10
2023-01-17T23:58:31.428Z,-1.18
